Time;durP1;ratioP1;P1;durP2;ratioP2;P2;SDS_P1;SDS_P2;PMS_P1;PMS_P2;Temp;Humidity;BMP_temperature;BMP_pressure;BME280_temperature;BME280_humidity;BME280_pressure;Samples;Min_cycle;Max_cycle;Signal;HPM_P1;HPM_P2
2022/05/12 00:01:59;;;;;;;10.75;2.50;;;11.10;99.90;;;;;;4995782;28;20029;-80
2022/05/12 00:04:26;;;;;;;6.82;2.67;;;11.10;99.90;;;;;;4970066;28;20558;-80
2022/05/12 00:06:52;;;;;;;10.75;2.72;;;11.10;99.90;;;;;;5011468;28;20103;-81
2022/05/12 00:09:18;;;;;;;7.32;2.20;;;11.00;99.90;;;;;;5006594;28;20089;-83
2022/05/12 00:11:44;;;;;;;11.18;3.00;;;11.00;99.90;;;;;;4989332;28;20125;-81
2022/05/12 00:14:10;;;;;;;10.32;3.22;;;10.90;99.90;;;;;;5005427;28;20435;-81
2022/05/12 00:16:36;;;;;;;10.55;2.85;;;10.80;99.90;;;;;;4949975;28;20499;-81
2022/05/12 00:19:02;;;;;;;9.02;2.50;;;10.80;99.90;;;;;;4983520;28;20084;-83
2022/05/12 00:21:31;;;;;;;6.68;2.42;;;10.80;99.90;;;;;;4982660;28;20046;-81
2022/05/12 00:24:03;;;;;;;7.40;2.35;;;10.80;99.90;;;;;;4992354;28;20138;-74
2022/05/12 00:26:36;;;;;;;7.63;2.50;;;10.70;99.90;;;;;;5008177;28;20557;-74
2022/05/12 00:29:05;;;;;;;9.15;3.05;;;10.70;99.90;;;;;;4991195;28;20038;-75
2022/05/12 00:31:32;;;;;;;7.07;2.40;;;10.60;99.90;;;;;;4999457;28;20076;-74
2022/05/12 00:33:58;;;;;;;5.78;1.92;;;10.60;99.90;;;;;;4956514;28;20085;-74
2022/05/12 00:36:24;;;;;;;5.60;2.13;;;10.50;99.90;;;;;;4976604;28;20077;-74
2022/05/12 00:38:50;;;;;;;9.63;2.42;;;10.50;99.90;;;;;;4967417;28;20487;-74
2022/05/12 00:41:16;;;;;;;5.38;2.58;;;10.50;99.90;;;;;;4979892;28;20502;-75
2022/05/12 00:43:51;;;;;;;7.25;2.63;;;10.40;99.90;;;;;;4969742;28;20046;-75
2022/05/12 00:46:20;;;;;;;8.40;2.30;;;10.40;99.90;;;;;;4975495;28;20050;-75
2022/05/12 00:48:47;;;;;;;9.98;2.33;;;10.40;99.90;;;;;;4991881;28;20109;-75
2022/05/12 00:51:18;;;;;;;6.00;1.98;;;10.30;99.90;;;;;;5009763;28;20038;-75
2022/05/12 00:53:45;;;;;;;7.10;1.98;;;10.30;99.90;;;;;;4995629;28;20042;-75
2022/05/12 00:56:17;;;;;;;4.53;2.00;;;10.30;99.90;;;;;;5016929;28;20072;-75
2022/05/12 00:58:44;;;;;;;9.48;1.77;;;10.20;99.90;;;;;;4982125;28;20046;-75
2022/05/12 01:01:10;;;;;;;8.30;2.05;;;10.20;99.90;;;;;;5002982;28;20041;-75
2022/05/12 01:03:40;;;;;;;6.32;2.10;;;10.10;99.90;;;;;;4996132;28;20048;-75
2022/05/12 01:06:08;;;;;;;4.30;2.00;;;10.10;99.90;;;;;;4996364;28;20057;-75
2022/05/12 01:08:34;;;;;;;4.10;1.90;;;10.00;99.90;;;;;;4987370;28;20054;-75
2022/05/12 01:11:06;;;;;;;6.82;1.88;;;10.00;99.90;;;;;;4990879;28;20038;-75
2022/05/12 01:13:32;;;;;;;3.15;1.80;;;10.00;99.90;;;;;;5019093;28;20053;-75
2022/05/12 01:16:02;;;;;;;5.80;1.75;;;10.00;99.90;;;;;;4986468;28;20034;-75
2022/05/12 01:18:31;;;;;;;4.90;1.90;;;10.00;99.90;;;;;;4972431;28;20044;-75
2022/05/12 01:20:57;;;;;;;5.68;2.20;;;9.90;99.90;;;;;;5008033;28;20072;-75
2022/05/12 01:23:31;;;;;;;2.75;1.70;;;9.90;99.90;;;;;;4984651;28;20044;-75
2022/05/12 01:26:12;;;;;;;7.60;2.20;;;9.90;99.90;;;;;;5004509;28;20044;-75
2022/05/12 01:28:38;;;;;;;3.57;1.80;;;9.80;99.90;;;;;;4989970;28;20072;-75
2022/05/12 01:31:05;;;;;;;4.68;2.00;;;9.80;99.90;;;;;;4974784;28;20082;-75
2022/05/12 01:33:31;;;;;;;5.35;2.00;;;9.80;99.90;;;;;;4996874;28;20034;-74
2022/05/12 01:35:57;;;;;;;5.40;1.90;;;9.70;99.90;;;;;;5026557;28;20038;-75
2022/05/12 01:38:24;;;;;;;5.38;2.10;;;9.70;99.90;;;;;;4994573;28;20065;-75
2022/05/12 01:40:50;;;;;;;5.72;2.30;;;9.70;99.90;;;;;;4983545;28;20068;-75
2022/05/12 01:43:16;;;;;;;4.95;2.20;;;9.60;99.90;;;;;;4989339;28;20057;-75
2022/05/12 01:45:43;;;;;;;4.35;2.17;;;9.60;99.90;;;;;;5007907;28;20033;-75
2022/05/12 01:48:10;;;;;;;4.70;1.98;;;9.60;99.90;;;;;;4995488;28;20038;-75
2022/05/12 01:50:40;;;;;;;5.07;2.28;;;9.50;99.90;;;;;;4993112;28;20064;-75
2022/05/12 01:53:09;;;;;;;4.05;1.80;;;9.50;99.90;;;;;;4984890;28;20379;-75
2022/05/12 01:55:35;;;;;;;4.75;1.92;;;9.50;99.90;;;;;;5009985;28;20125;-75
2022/05/12 01:58:02;;;;;;;8.00;2.40;;;9.40;99.90;;;;;;5004991;28;20502;-75
2022/05/12 02:00:29;;;;;;;4.90;2.30;;;9.40;99.90;;;;;;4968291;28;20518;-75
2022/05/12 02:03:00;;;;;;;3.80;2.15;;;9.40;99.90;;;;;;4993613;28;20403;-75
2022/05/12 02:05:37;;;;;;;4.82;2.75;;;9.40;99.90;;;;;;5016875;28;20042;-75
2022/05/12 02:08:04;;;;;;;7.25;2.53;;;9.40;99.90;;;;;;4968093;28;20050;-75
2022/05/12 02:10:35;;;;;;;4.75;2.13;;;9.30;99.90;;;;;;4953082;28;20069;-75
2022/05/12 02:13:01;;;;;;;3.53;2.13;;;9.30;99.90;;;;;;4953924;28;20058;-75
2022/05/12 02:15:26;;;;;;;6.88;2.35;;;9.30;99.90;;;;;;4974185;28;20054;-75
2022/05/12 02:17:52;;;;;;;4.35;2.00;;;9.20;99.90;;;;;;4936299;28;20042;-75
2022/05/12 02:20:21;;;;;;;7.70;2.58;;;9.20;99.90;;;;;;4964232;28;20038;-75
2022/05/12 02:22:47;;;;;;;6.22;2.80;;;9.20;99.90;;;;;;4964981;28;20062;-75
2022/05/12 02:25:13;;;;;;;4.65;2.30;;;9.20;99.90;;;;;;4967078;28;20034;-75
2022/05/12 02:27:44;;;;;;;3.85;2.10;;;9.20;99.90;;;;;;4958624;28;20467;-75
2022/05/12 02:30:24;;;;;;;5.60;2.58;;;9.10;99.90;;;;;;4976417;28;20045;-75
2022/05/12 02:32:50;;;;;;;7.40;2.25;;;9.10;99.90;;;;;;4967613;28;20548;-75
2022/05/12 02:35:17;;;;;;;6.60;2.40;;;9.10;99.90;;;;;;4943614;28;20077;-75
2022/05/12 02:37:44;;;;;;;7.43;2.60;;;9.00;99.90;;;;;;4954707;28;20041;-75
2022/05/12 02:40:12;;;;;;;5.75;2.35;;;9.00;99.90;;;;;;4977933;28;20044;-75
2022/05/12 02:42:38;;;;;;;6.13;2.80;;;9.00;99.90;;;;;;4977535;28;20542;-75
2022/05/12 02:45:05;;;;;;;5.13;2.60;;;9.00;99.90;;;;;;4955195;28;20042;-75
2022/05/12 02:47:31;;;;;;;4.28;2.50;;;9.00;99.90;;;;;;4986666;28;20482;-75
2022/05/12 02:49:57;;;;;;;5.88;2.55;;;9.00;99.90;;;;;;4965806;28;20062;-75
2022/05/12 02:52:22;;;;;;;6.63;2.65;;;9.00;99.90;;;;;;4952588;28;20038;-75
2022/05/12 02:54:48;;;;;;;6.47;2.88;;;9.00;99.90;;;;;;4946646;28;20041;-75
2022/05/12 02:57:14;;;;;;;6.32;2.78;;;9.00;99.90;;;;;;4954906;28;20047;-75
2022/05/12 02:59:40;;;;;;;4.38;2.83;;;8.90;99.90;;;;;;4970296;28;20035;-75
2022/05/12 03:02:06;;;;;;;8.38;3.05;;;9.00;99.90;;;;;;4967328;28;20114;-75
2022/05/12 03:04:33;;;;;;;10.35;2.65;;;8.90;99.90;;;;;;4954956;28;20081;-75
2022/05/12 03:06:59;;;;;;;8.20;3.00;;;8.90;99.90;;;;;;4955548;28;20050;-74
2022/05/12 03:09:25;;;;;;;7.45;3.15;;;8.90;99.90;;;;;;5006586;28;20496;-75
2022/05/12 03:11:51;;;;;;;7.15;2.60;;;8.90;99.90;;;;;;4962601;28;20492;-75
2022/05/12 03:14:17;;;;;;;5.03;2.67;;;8.90;99.90;;;;;;4970844;28;20034;-75
2022/05/12 03:16:43;;;;;;;7.15;2.75;;;8.80;99.90;;;;;;4968366;28;20581;-75
2022/05/12 03:19:10;;;;;;;5.78;3.13;;;8.80;99.90;;;;;;4988442;28;20456;-75
2022/05/12 03:21:36;;;;;;;5.32;2.75;;;8.80;99.90;;;;;;4986521;28;20041;-75
2022/05/12 03:24:04;;;;;;;6.40;3.10;;;8.80;99.90;;;;;;4974032;28;20096;-75
2022/05/12 03:26:30;;;;;;;7.90;2.80;;;8.80;99.90;;;;;;4967524;28;20042;-75
2022/05/12 03:28:56;;;;;;;7.18;3.20;;;8.80;99.90;;;;;;5004120;28;20128;-75
2022/05/12 03:31:22;;;;;;;5.00;2.45;;;8.80;99.90;;;;;;4984511;28;20048;-75
2022/05/12 03:33:48;;;;;;;7.13;3.08;;;8.70;99.90;;;;;;4974262;28;20034;-75
2022/05/12 03:36:16;;;;;;;7.43;3.20;;;8.70;99.90;;;;;;4978227;28;20062;-75
2022/05/12 03:38:43;;;;;;;6.32;2.75;;;8.70;99.90;;;;;;4986718;28;20407;-75
2022/05/12 03:41:09;;;;;;;4.82;2.72;;;8.70;99.90;;;;;;4969099;28;20042;-75
2022/05/12 03:46:19;;;;;;;3.42;2.90;;;8.70;99.90;;;;;;4987876;28;21354;-75
2022/05/12 03:48:46;;;;;;;6.47;2.97;;;8.70;99.90;;;;;;4952781;28;20045;-75
2022/05/12 03:51:12;;;;;;;7.15;3.63;;;8.70;99.90;;;;;;4968600;28;20128;-75
2022/05/12 03:53:40;;;;;;;7.00;3.13;;;8.70;99.90;;;;;;4970645;28;20145;-75
2022/05/12 03:56:07;;;;;;;7.55;3.33;;;8.70;99.90;;;;;;5016872;28;20056;-75
2022/05/12 03:58:34;;;;;;;9.05;3.63;;;8.70;99.90;;;;;;4987176;28;20046;-75
2022/05/12 04:01:01;;;;;;;7.32;3.28;;;8.60;99.90;;;;;;4985210;28;20044;-75
2022/05/12 04:03:26;;;;;;;7.60;3.20;;;8.60;99.90;;;;;;4989487;28;20152;-75
2022/05/12 04:05:54;;;;;;;13.93;3.72;;;8.60;99.90;;;;;;4969529;28;20826;-74
2022/05/12 04:08:21;;;;;;;13.00;3.58;;;8.60;99.90;;;;;;4985950;28;20085;-75
2022/05/12 04:10:49;;;;;;;5.60;3.35;;;8.60;99.90;;;;;;4968572;28;20046;-75
2022/05/12 04:13:16;;;;;;;8.63;3.53;;;8.60;99.90;;;;;;4974372;28;20140;-75
2022/05/12 04:15:42;;;;;;;8.88;3.50;;;8.60;99.90;;;;;;4986611;28;20040;-74
2022/05/12 04:18:08;;;;;;;10.85;3.33;;;8.60;99.90;;;;;;4980433;28;20052;-74
2022/05/12 04:20:36;;;;;;;7.97;3.17;;;8.60;99.90;;;;;;4987976;28;20076;-75
2022/05/12 04:23:02;;;;;;;8.07;3.38;;;8.60;99.90;;;;;;4974821;28;20076;-74
2022/05/12 04:25:28;;;;;;;9.18;3.25;;;8.60;99.90;;;;;;4991888;28;20120;-75
2022/05/12 04:27:54;;;;;;;14.02;4.78;;;8.50;99.90;;;;;;4991618;28;20455;-75
2022/05/12 04:30:24;;;;;;;12.45;3.95;;;8.60;99.90;;;;;;4986114;28;20030;-75
2022/05/12 04:32:50;;;;;;;8.65;4.18;;;8.60;99.90;;;;;;4975033;28;20096;-75
2022/05/12 04:35:17;;;;;;;10.35;3.97;;;8.70;99.90;;;;;;4982122;28;20073;-75
2022/05/12 04:37:45;;;;;;;8.57;3.50;;;8.70;99.90;;;;;;4990595;28;20381;-75
2022/05/12 04:40:16;;;;;;;12.02;4.63;;;8.70;99.90;;;;;;4992906;28;21462;-75
2022/05/12 04:42:42;;;;;;;9.35;3.90;;;8.70;99.90;;;;;;4991187;28;20391;-75
2022/05/12 04:45:09;;;;;;;13.52;4.50;;;8.80;99.90;;;;;;4975659;28;20038;-75
2022/05/12 04:47:36;;;;;;;10.95;4.13;;;8.80;99.90;;;;;;4973177;28;20084;-75
2022/05/12 04:50:04;;;;;;;11.48;4.45;;;8.80;99.90;;;;;;5005353;28;20052;-75
2022/05/12 04:52:30;;;;;;;10.55;4.60;;;8.90;99.90;;;;;;4974693;28;20077;-75
2022/05/12 04:54:55;;;;;;;9.90;4.50;;;8.90;99.90;;;;;;4970039;28;20089;-75
2022/05/12 04:57:21;;;;;;;10.82;4.32;;;8.90;99.90;;;;;;4995349;28;20133;-75
2022/05/12 04:59:51;;;;;;;14.73;4.85;;;8.90;99.90;;;;;;5011003;28;20565;-75
2022/05/12 05:02:17;;;;;;;11.77;5.32;;;9.00;99.90;;;;;;4966807;28;20034;-75
2022/05/12 05:04:43;;;;;;;17.40;5.22;;;9.00;99.90;;;;;;4996222;28;20407;-75
2022/05/12 05:07:11;;;;;;;19.42;6.72;;;9.10;99.90;;;;;;4988728;28;20046;-75
2022/05/12 05:09:37;;;;;;;13.63;5.50;;;9.10;99.90;;;;;;5022165;28;20050;-76
2022/05/12 05:12:03;;;;;;;14.88;5.75;;;9.20;99.90;;;;;;4976838;28;20041;-75
2022/05/12 05:14:29;;;;;;;14.13;5.40;;;9.20;99.90;;;;;;4983198;28;20042;-76
2022/05/12 05:16:55;;;;;;;12.70;5.82;;;9.30;99.90;;;;;;4981417;28;20581;-76
2022/05/12 05:19:21;;;;;;;18.73;7.22;;;9.30;99.90;;;;;;5002352;28;20030;-75
2022/05/12 05:21:47;;;;;;;17.75;6.57;;;9.40;99.90;;;;;;4990331;28;20044;-75
2022/05/12 05:24:13;;;;;;;14.32;6.85;;;9.50;99.90;;;;;;5032344;28;20124;-75
2022/05/12 05:26:38;;;;;;;10.98;5.90;;;9.50;99.90;;;;;;5003895;28;20113;-75
2022/05/12 05:29:04;;;;;;;22.40;8.07;;;9.60;99.90;;;;;;5000429;28;20042;-75
2022/05/12 05:31:30;;;;;;;15.57;6.82;;;9.60;99.90;;;;;;4981165;28;20077;-75
2022/05/12 05:33:56;;;;;;;14.60;7.70;;;9.70;99.90;;;;;;4980795;28;20038;-75
2022/05/12 05:36:22;;;;;;;18.67;9.00;;;9.80;99.90;;;;;;5007912;28;20049;-75
2022/05/12 05:38:47;;;;;;;16.40;7.88;;;9.80;99.90;;;;;;4973957;28;20057;-75
2022/05/12 05:41:13;;;;;;;16.17;7.78;;;9.80;99.90;;;;;;4978159;28;20533;-75
2022/05/12 05:43:39;;;;;;;42.50;13.40;;;9.90;99.90;;;;;;4994899;28;20514;-75
2022/05/12 05:46:05;;;;;;;14.07;8.15;;;9.90;99.90;;;;;;4993769;28;20041;-75
2022/05/12 05:48:32;;;;;;;20.15;8.63;;;10.00;99.90;;;;;;5013400;28;20046;-75
2022/05/12 05:53:59;;;;;;;19.40;9.82;;;10.10;99.90;;;;;;4997117;28;20045;-75
2022/05/12 05:56:24;;;;;;;20.00;9.25;;;10.20;99.90;;;;;;5005191;28;20061;-76
2022/05/12 05:58:51;;;;;;;17.85;9.00;;;10.30;99.90;;;;;;4995999;28;20108;-76
2022/05/12 06:01:17;;;;;;;20.67;9.60;;;10.30;99.90;;;;;;5007550;28;20500;-76
2022/05/12 06:03:43;;;;;;;17.13;9.00;;;10.40;99.90;;;;;;4990182;28;20038;-76
2022/05/12 06:06:09;;;;;;;20.75;8.73;;;10.50;99.90;;;;;;4977526;28;20045;-75
2022/05/12 06:08:36;;;;;;;17.48;9.10;;;10.50;99.90;;;;;;4973182;28;20065;-76
2022/05/12 06:11:04;;;;;;;21.23;9.85;;;10.50;99.90;;;;;;4972854;28;20041;-75
2022/05/12 06:13:32;;;;;;;15.73;8.20;;;10.60;99.90;;;;;;4974520;28;20129;-76
2022/05/12 06:15:58;;;;;;;22.20;11.02;;;10.70;99.90;;;;;;5007501;28;20037;-76
2022/05/12 06:18:24;;;;;;;18.67;9.77;;;10.80;99.90;;;;;;5001552;28;20144;-76
2022/05/12 06:20:50;;;;;;;63.50;17.55;;;10.90;99.90;;;;;;5001075;28;20042;-76
2022/05/12 06:23:17;;;;;;;24.40;10.60;;;11.00;99.90;;;;;;4991439;28;20544;-75
2022/05/12 06:25:46;;;;;;;28.52;10.63;;;11.10;99.90;;;;;;4994712;28;20076;-76
2022/05/12 06:28:12;;;;;;;15.63;9.10;;;11.20;99.90;;;;;;4999286;28;20502;-75
2022/05/12 06:30:39;;;;;;;20.92;9.00;;;11.30;99.90;;;;;;5003954;28;20042;-76
2022/05/12 06:33:05;;;;;;;18.60;8.20;;;11.40;99.90;;;;;;4974890;28;20044;-76
2022/05/12 06:35:31;;;;;;;14.00;8.38;;;11.50;99.90;;;;;;4973436;28;20660;-76
2022/05/12 06:37:58;;;;;;;20.15;8.75;;;11.60;99.90;;;;;;4965931;28;20456;-76
2022/05/12 06:40:24;;;;;;;18.85;7.78;;;11.80;99.90;;;;;;4988908;28;20030;-76
2022/05/12 06:42:50;;;;;;;14.45;7.60;;;11.90;99.90;;;;;;4989666;28;20126;-76
2022/05/12 06:45:18;;;;;;;18.77;8.05;;;11.90;99.90;;;;;;4969623;28;20045;-76
2022/05/12 06:47:50;;;;;;;13.55;7.55;;;12.10;99.90;;;;;;5005170;28;20047;-76
2022/05/12 06:50:22;;;;;;;13.07;7.88;;;12.20;99.90;;;;;;5004571;28;20038;-76
2022/05/12 06:52:49;;;;;;;12.77;7.70;;;12.30;99.90;;;;;;4972655;28;20046;-75
2022/05/12 06:55:16;;;;;;;15.13;7.18;;;12.30;99.90;;;;;;4986326;28;20049;-75
2022/05/12 06:57:42;;;;;;;19.77;8.25;;;12.40;99.90;;;;;;4972721;28;20037;-76
2022/05/12 07:00:09;;;;;;;14.25;6.65;;;12.50;99.90;;;;;;4957354;28;20075;-76
2022/05/12 07:02:36;;;;;;;17.48;7.97;;;12.60;99.90;;;;;;4973624;28;20065;-75
2022/05/12 07:05:02;;;;;;;14.93;7.20;;;12.70;99.90;;;;;;5004492;28;20053;-75
2022/05/12 07:07:28;;;;;;;15.18;7.28;;;12.80;99.90;;;;;;4977911;28;20522;-75
2022/05/12 07:09:55;;;;;;;13.68;7.00;;;13.00;99.90;;;;;;4993397;28;20045;-75
2022/05/12 07:12:22;;;;;;;14.73;6.90;;;13.10;99.90;;;;;;4987748;28;20065;-75
2022/05/12 07:14:49;;;;;;;10.98;5.90;;;13.20;99.90;;;;;;4992835;28;20164;-75
2022/05/12 07:17:20;;;;;;;12.88;5.28;;;13.40;99.90;;;;;;4969284;28;20072;-75
2022/05/12 07:19:46;;;;;;;11.40;4.90;;;13.50;99.90;;;;;;5017825;28;20046;-75
2022/05/12 07:27:40;;;;;;;10.52;4.18;;;13.90;99.90;;;;;;4997422;28;20033;-75
2022/05/12 07:30:07;;;;;;;11.35;4.32;;;14.00;99.90;;;;;;4998220;28;20099;-75
2022/05/12 07:32:33;;;;;;;7.47;3.78;;;14.10;99.90;;;;;;4991585;28;20049;-75
2022/05/12 07:34:59;;;;;;;18.55;6.38;;;14.30;99.90;;;;;;4992022;28;20373;-75
2022/05/12 07:37:25;;;;;;;9.32;4.43;;;14.40;99.90;;;;;;4976516;28;20068;-75
2022/05/12 07:39:50;;;;;;;5.85;3.20;;;14.60;99.90;;;;;;4996307;28;20045;-75
2022/05/12 07:42:16;;;;;;;6.03;3.35;;;14.70;99.90;;;;;;4980318;28;20072;-75
2022/05/12 07:44:42;;;;;;;9.15;3.33;;;14.80;99.90;;;;;;4980845;28;20052;-75
2022/05/12 07:47:13;;;;;;;11.05;3.00;;;14.80;99.90;;;;;;4966565;28;20483;-75
2022/05/12 07:49:40;;;;;;;8.43;2.97;;;14.90;99.90;;;;;;5012620;28;20046;-75
2022/05/12 07:52:08;;;;;;;6.13;2.80;;;15.10;99.90;;;;;;5030135;28;20495;-75
2022/05/12 07:54:36;;;;;;;5.68;2.97;;;15.20;99.90;;;;;;4986422;28;20072;-75
2022/05/12 07:57:02;;;;;;;7.50;3.03;;;15.30;99.90;;;;;;4995843;28;20056;-75
2022/05/12 07:59:29;;;;;;;6.10;2.67;;;15.40;99.90;;;;;;4990835;28;20369;-81
2022/05/12 08:01:58;;;;;;;9.80;3.95;;;15.40;99.90;;;;;;4993595;28;20042;-81
2022/05/12 08:04:25;;;;;;;4.72;2.58;;;15.40;99.90;;;;;;5010697;28;20503;-81
2022/05/12 08:06:51;;;;;;;6.18;2.70;;;15.50;99.90;;;;;;4985890;28;20494;-79
2022/05/12 08:09:17;;;;;;;8.93;2.95;;;15.60;99.90;;;;;;4992976;28;20061;-79
2022/05/12 08:11:44;;;;;;;7.32;3.05;;;15.70;99.90;;;;;;4980465;28;20053;-81
2022/05/12 08:14:10;;;;;;;5.20;2.85;;;15.80;99.90;;;;;;5012434;28;20565;-80
2022/05/12 08:16:37;;;;;;;32.10;7.03;;;16.00;99.90;;;;;;5029708;28;20398;-79
2022/05/12 08:19:03;;;;;;;8.00;3.17;;;15.90;99.90;;;;;;4996815;28;20442;-79
2022/05/12 08:21:30;;;;;;;7.65;4.15;;;15.90;99.90;;;;;;4997133;28;20095;-79
2022/05/12 08:23:55;;;;;;;10.43;3.65;;;15.90;99.90;;;;;;5002069;28;20049;-78
2022/05/12 08:26:22;;;;;;;9.48;3.33;;;16.00;99.90;;;;;;4996760;28;20096;-79
2022/05/12 08:28:50;;;;;;;6.95;3.15;;;15.90;99.90;;;;;;4997384;28;20133;-79
2022/05/12 08:31:20;;;;;;;7.28;3.25;;;16.00;99.90;;;;;;5011506;28;20033;-79
2022/05/12 08:33:45;;;;;;;11.10;3.30;;;16.30;99.90;;;;;;4947210;28;20399;-80
2022/05/12 08:36:11;;;;;;;11.18;2.83;;;16.40;99.90;;;;;;4991823;28;20037;-79
2022/05/12 08:38:40;;;;;;;7.68;2.80;;;16.50;99.90;;;;;;4987028;28;20046;-79
2022/05/12 08:41:38;;;;;;;5.40;2.35;;;16.50;99.90;;;;;;5016119;28;20123;-78
2022/05/12 08:44:10;;;;;;;14.57;3.75;;;16.60;99.90;;;;;;5013982;28;20038;-79
2022/05/12 08:46:41;;;;;;;35.40;8.13;;;16.80;99.90;;;;;;4998932;28;20137;-78
2022/05/12 08:49:26;;;;;;;5.25;2.60;;;16.70;99.90;;;;;;5012884;28;20041;-77
2022/05/12 08:52:07;;;;;;;7.38;2.42;;;16.80;99.90;;;;;;5000494;28;20129;-79
2022/05/12 08:54:35;;;;;;;6.05;2.38;;;16.90;99.90;;;;;;4978271;28;20037;-78
2022/05/12 08:57:05;;;;;;;4.57;2.40;;;17.00;99.90;;;;;;4993915;28;20499;-77
2022/05/12 08:59:32;;;;;;;5.90;2.30;;;17.00;99.80;;;;;;5003966;28;20103;-78
2022/05/12 09:02:16;;;;;;;8.32;2.40;;;16.80;99.50;;;;;;4995967;28;20196;-78
2022/05/12 09:05:03;;;;;;;8.90;2.95;;;17.10;99.90;;;;;;4993139;28;20034;-77
2022/05/12 09:07:44;;;;;;;7.05;2.50;;;17.10;99.90;;;;;;5005167;28;20049;-78
2022/05/12 09:10:33;;;;;;;6.47;2.53;;;17.20;99.60;;;;;;4996659;28;20085;-78
2022/05/12 09:13:04;;;;;;;6.93;3.22;;;17.30;98.70;;;;;;5011275;28;20034;-78
2022/05/12 09:15:34;;;;;;;4.53;2.45;;;17.50;99.10;;;;;;4980598;28;20034;-79
2022/05/12 09:18:33;;;;;;;5.32;2.20;;;17.50;98.50;;;;;;5049350;28;20120;-77
2022/05/12 09:21:08;;;;;;;5.22;2.28;;;17.30;97.70;;;;;;4988546;28;20503;-74
2022/05/12 09:23:35;;;;;;;5.75;2.60;;;17.40;98.20;;;;;;5007375;28;20050;-74
2022/05/12 09:26:01;;;;;;;6.30;2.30;;;17.60;98.40;;;;;;4978519;28;20125;-74
2022/05/12 09:28:30;;;;;;;5.57;2.13;;;17.80;97.20;;;;;;5016423;28;20116;-75
2022/05/12 09:31:12;;;;;;;7.18;2.38;;;17.90;96.10;;;;;;5000209;28;20509;-74
2022/05/12 09:33:38;;;;;;;6.60;2.53;;;18.00;95.00;;;;;;4980665;28;20038;-74
2022/05/12 09:36:47;;;;;;;3.95;2.15;;;18.00;96.20;;;;;;4997091;28;20049;-74
2022/05/12 09:39:37;;;;;;;5.00;2.30;;;17.70;95.20;;;;;;5030797;28;20037;-74
2022/05/12 09:42:28;;;;;;;3.30;2.00;;;17.70;94.50;;;;;;5007954;28;20037;-74
2022/05/12 09:45:00;;;;;;;5.00;1.83;;;17.80;95.00;;;;;;4972724;28;20069;-75
2022/05/12 09:47:28;;;;;;;5.28;2.40;;;17.80;93.40;;;;;;5016596;28;20038;-75
2022/05/12 09:50:16;;;;;;;11.63;2.42;;;18.00;94.20;;;;;;5033403;28;20046;-75
2022/05/12 09:53:00;;;;;;;6.18;2.17;;;17.80;93.50;;;;;;4982605;28;20034;-75
2022/05/12 09:55:39;;;;;;;3.92;1.85;;;17.70;93.90;;;;;;4997192;28;20097;-75
2022/05/12 09:58:26;;;;;;;6.38;2.42;;;17.80;94.00;;;;;;4977871;28;20042;-75
2022/05/12 10:01:05;;;;;;;6.85;2.13;;;18.10;94.50;;;;;;5011622;28;20495;-75
2022/05/12 10:09:08;;;;;;;6.15;2.13;;;18.00;91.90;;;;;;5014793;28;20081;-75
2022/05/12 10:12:06;;;;;;;6.55;2.22;;;17.70;91.60;;;;;;4989156;28;20046;-75
2022/05/12 10:14:46;;;;;;;5.07;1.73;;;17.70;90.90;;;;;;5000119;28;20053;-74
2022/05/12 10:17:37;;;;;;;6.78;2.33;;;17.80;91.30;;;;;;5006483;28;20060;-75
2022/05/12 10:20:11;;;;;;;7.78;2.38;;;18.00;91.50;;;;;;5032476;28;20128;-75
2022/05/12 10:22:37;;;;;;;5.47;1.80;;;18.10;92.00;;;;;;5003607;28;20044;-74
2022/05/12 10:25:15;;;;;;;3.40;1.60;;;18.10;91.70;;;;;;5009538;28;20037;-74
2022/05/12 10:27:46;;;;;;;8.18;2.10;;;18.30;90.00;;;;;;4996515;28;20052;-74
2022/05/12 10:30:39;;;;;;;7.22;1.63;;;18.50;90.70;;;;;;4996104;28;20037;-74
2022/05/12 10:33:11;;;;;;;;;;;18.80;88.60;;;;;;4993604;28;20041;-74
2022/05/12 10:36:00;;;;;;;5.90;2.08;;;19.00;86.90;;;;;;5009331;28;19917;-74
2022/05/12 10:38:39;;;;;;;6.90;2.13;;;19.10;86.10;;;;;;5022585;28;20049;-74
2022/05/12 10:41:18;;;;;;;5.50;1.95;;;19.10;87.80;;;;;;4998439;28;20406;-75
2022/05/12 10:44:05;;;;;;;4.10;1.88;;;19.00;85.30;;;;;;5014381;28;20072;-75
2022/05/12 10:47:06;;;;;;;5.40;1.83;;;19.10;85.70;;;;;;5014937;28;20041;-75
2022/05/12 10:49:35;;;;;;;3.15;1.88;;;19.20;84.50;;;;;;5014912;28;20169;-74
2022/05/12 10:52:24;;;;;;;3.72;1.58;;;19.30;85.00;;;;;;5013951;28;20624;-74
2022/05/12 10:55:07;;;;;;;3.30;1.52;;;19.40;81.30;;;;;;5011654;28;20120;-75
2022/05/12 10:58:19;;;;;;;4.55;1.73;;;19.50;81.70;;;;;;4999349;28;20042;-75
2022/05/12 11:00:57;;;;;;;4.55;1.90;;;19.60;79.40;;;;;;4997822;28;20088;-74
2022/05/12 11:03:32;;;;;;;5.53;1.80;;;19.70;81.00;;;;;;5030843;28;20081;-74
2022/05/12 11:06:02;;;;;;;3.45;1.70;;;19.80;78.90;;;;;;5014308;28;20120;-75
2022/05/12 11:08:49;;;;;;;5.22;1.75;;;19.80;79.10;;;;;;5000428;28;20051;-74
2022/05/12 11:11:25;;;;;;;3.55;1.88;;;19.90;79.10;;;;;;4993761;28;20038;-74
2022/05/12 11:14:00;;;;;;;4.68;1.70;;;20.00;78.40;;;;;;4982807;28;20049;-76
2022/05/12 11:16:36;;;;;;;4.30;1.70;;;20.00;77.50;;;;;;4983489;28;20101;-75
2022/05/12 11:19:20;;;;;;;4.30;1.65;;;20.00;77.20;;;;;;4981424;28;20108;-74
2022/05/12 11:21:54;;;;;;;7.35;1.85;;;20.10;76.90;;;;;;4967027;28;20104;-74
2022/05/12 11:24:45;;;;;;;5.10;1.50;;;20.30;78.30;;;;;;4959169;28;20034;-74
2022/05/12 11:27:19;;;;;;;2.50;1.42;;;20.40;76.70;;;;;;4984735;28;20046;-75
2022/05/12 11:30:06;;;;;;;3.90;1.90;;;20.60;76.40;;;;;;4991328;28;20038;-74
2022/05/12 11:32:57;;;;;;;3.55;1.48;;;20.60;74.90;;;;;;4958931;28;20101;-75
2022/05/12 11:35:31;;;;;;;3.33;1.90;;;20.40;71.70;;;;;;4980504;28;20298;-74
2022/05/12 11:38:01;;;;;;;3.97;1.17;;;20.30;72.40;;;;;;4981330;28;20042;-74
2022/05/12 11:40:48;;;;;;;4.63;1.80;;;19.90;71.50;;;;;;4964042;28;20127;-75
2022/05/12 11:46:19;;;;;;;;;;;20.00;71.00;;;;;;4986556;28;20046;-75
2022/05/12 11:48:54;;;;;;;3.40;1.40;;;20.00;68.30;;;;;;4979973;28;20470;-74
2022/05/12 11:51:35;;;;;;;3.03;1.80;;;20.30;71.10;;;;;;4985235;28;20395;-75
2022/05/12 11:54:05;;;;;;;2.97;1.43;;;20.00;70.20;;;;;;4988497;28;20046;-74
2022/05/12 11:56:51;;;;;;;3.28;1.40;;;19.70;69.40;;;;;;4967932;28;20049;-73
2022/05/12 11:59:24;;;;;;;3.15;1.35;;;19.80;69.20;;;;;;4975719;28;20275;-73
2022/05/12 12:02:28;;;;;;;3.60;1.60;;;20.00;70.60;;;;;;4959261;28;20060;-74
2022/05/12 12:04:55;;;;;;;8.25;1.70;;;20.10;69.20;;;;;;4967336;28;20043;-75
2022/05/12 12:07:21;;;;;;;7.82;1.75;;;20.30;71.40;;;;;;4986082;28;20487;-75
2022/05/12 12:09:54;;;;;;;5.05;1.55;;;20.20;69.70;;;;;;5028319;28;20141;-74
2022/05/12 12:12:45;;;;;;;1.83;1.20;;;20.30;69.00;;;;;;4996920;28;20045;-75
2022/05/12 12:15:35;;;;;;;4.10;1.40;;;20.10;67.40;;;;;;4983725;28;20042;-74
2022/05/12 12:18:21;;;;;;;3.33;1.40;;;20.00;69.40;;;;;;4964428;28;20041;-74
2022/05/12 12:20:50;;;;;;;6.22;1.60;;;19.90;69.70;;;;;;4983719;28;20041;-74
2022/05/12 12:23:29;;;;;;;2.50;1.40;;;20.10;69.40;;;;;;5002653;28;20037;-75
2022/05/12 12:25:58;;;;;;;7.15;1.80;;;20.00;67.80;;;;;;5013610;28;20132;-74
2022/05/12 12:28:33;;;;;;;2.13;1.60;;;19.90;67.90;;;;;;5002138;28;20037;-73
2022/05/12 12:31:21;;;;;;;2.97;1.55;;;19.90;68.90;;;;;;5012716;28;20041;-75
2022/05/12 12:34:15;;;;;;;2.85;1.65;;;19.90;67.80;;;;;;5012058;28;20068;-75
2022/05/12 12:36:53;;;;;;;3.67;1.58;;;20.00;67.20;;;;;;4995728;28;20041;-74
2022/05/12 12:40:15;;;;;;;10.77;2.03;;;20.10;67.60;;;;;;5029520;28;20077;-75
2022/05/12 12:42:46;;;;;;;3.95;2.03;;;20.00;65.10;;;;;;4952744;28;20420;-74
2022/05/12 12:45:16;;;;;;;8.23;1.75;;;19.60;65.80;;;;;;5006296;28;20053;-74
2022/05/12 12:48:09;;;;;;;5.30;1.42;;;19.50;66.40;;;;;;5000513;28;20132;-74
2022/05/12 12:50:44;;;;;;;2.75;1.70;;;19.50;66.60;;;;;;5003443;28;20521;-75
2022/05/12 12:56:35;;;;;;;4.28;1.50;;;19.40;66.70;;;;;;5015582;28;20097;-74
2022/05/12 12:59:18;;;;;;;3.13;1.40;;;19.30;64.80;;;;;;5014217;28;20044;-74
2022/05/12 13:02:01;;;;;;;3.80;1.63;;;19.40;66.10;;;;;;5013284;28;20086;-74
2022/05/12 13:04:31;;;;;;;3.47;1.38;;;19.20;64.10;;;;;;5015988;28;20045;-74
2022/05/12 13:07:00;;;;;;;4.05;1.38;;;19.00;64.90;;;;;;4999549;28;20148;-73
2022/05/12 13:09:32;;;;;;;4.63;1.48;;;18.70;66.00;;;;;;4999743;28;19928;-74
2022/05/12 13:12:16;;;;;;;2.30;1.20;;;18.80;66.90;;;;;;5032618;28;20037;-75
2022/05/12 13:14:43;;;;;;;3.95;1.85;;;19.20;66.60;;;;;;4985098;28;20052;-75
2022/05/12 13:17:22;;;;;;;2.35;1.58;;;19.50;65.90;;;;;;4999075;28;20044;-74
2022/05/12 13:19:48;;;;;;;4.63;1.92;;;19.90;65.30;;;;;;4979282;28;20030;-74
2022/05/12 13:22:28;;;;;;;4.45;1.33;;;20.10;63.60;;;;;;4965974;28;20460;-75
2022/05/12 13:24:55;;;;;;;3.17;1.33;;;20.30;62.50;;;;;;4989860;28;20046;-75
2022/05/12 13:27:28;;;;;;;4.43;1.55;;;20.30;63.00;;;;;;4981135;28;20548;-75
2022/05/12 13:29:54;;;;;;;4.80;3.08;;;20.40;62.80;;;;;;4985099;28;20520;-74
2022/05/12 13:32:50;;;;;;;4.68;1.67;;;20.50;62.90;;;;;;4966627;28;20116;-75